Pagina principale
METAR-TAF:

METAR-TAF

Aeroporti :

Calhoun, Georgia, Stati Uniti

latitudine: 34-27-20N, longitudine: 084-56-21W, altezza: 198 m

Osservazione

Il bollettino è stato emesso 14 minuti fa, alle 21:55 UTC
Vento 4 kt da nord-ovest
Temperature 11°C
Umidità 71%
Pressione 1022 hPa
Visibilità: 16.1 km
Cielo coperto ad un'altezza di 2600 ft

METAR: KCZL 162155Z AUTO 32004KT 10SM OVC026 11/06 A3017 RMK AO2

Ora: 17:09 (22:09 UTC)


TAF: mancante

Osservazioni e previsioni meteorologiche di più di 4000 aeroporti (messaggi METAR e TAF).

Le stazioni disponibili sono rappresentate dai dischi gialli e rossi sulla carta.

Puntare il mouse per vedere il nome della stazione.

Clicca sopra per visualizzare le osservazioni e previsioni meteorologiche.

Per cambiare la mappa : fare clic sui pulsanti verdi con una croce nera per ingrandire, il pulsante verde con un trattino per diminuire, o sulla freccia verde per le mappe adiacenti.


METAR-TAF: